Time;durP1;ratioP1;P1;durP2;ratioP2;P2;SDS_P1;SDS_P2;PMS_P1;PMS_P2;Temp;Humidity;BMP_temperature;BMP_pressure;BME280_temperature;BME280_humidity;BME280_pressure;Samples;Min_cycle;Max_cycle;Signal;HPM_P1;HPM_P2
2023/04/06 00:02:19;;;;;;;15.15;11.57;;;;;;;-1.46;100.00;92846.84;5047020;28;20049;-69
2023/04/06 00:04:46;;;;;;;12.73;9.80;;;;;;;-1.30;100.00;92844.44;5046887;28;20067;-70
2023/04/06 00:07:13;;;;;;;11.82;9.75;;;;;;;-1.35;100.00;92836.53;5046597;28;20056;-70
2023/04/06 00:09:40;;;;;;;13.40;10.63;;;;;;;-1.30;100.00;92838.63;5046919;28;20041;-70
2023/04/06 00:12:07;;;;;;;13.07;11.38;;;;;;;-1.35;100.00;92812.16;5046759;28;20071;-70
2023/04/06 00:14:34;;;;;;;14.30;11.77;;;;;;;-1.01;100.00;92832.53;5046958;28;20049;-70
2023/04/06 00:17:01;;;;;;;16.08;12.13;;;;;;;-1.00;100.00;92831.59;5046551;28;20057;-70
2023/04/06 00:19:29;;;;;;;15.48;12.65;;;;;;;-1.04;100.00;92826.03;5046616;28;20099;-70
2023/04/06 00:21:56;;;;;;;15.02;11.82;;;;;;;-0.99;100.00;92828.91;5046971;28;20072;-70
2023/04/06 00:24:23;;;;;;;14.82;11.45;;;;;;;-0.98;100.00;92822.13;5046695;28;20045;-70
2023/04/06 00:26:49;;;;;;;13.82;11.52;;;;;;;-1.06;100.00;92817.84;5046624;28;20045;-70
2023/04/06 00:29:16;;;;;;;15.15;11.88;;;;;;;-1.42;100.00;92820.44;5047045;28;20049;-70
2023/04/06 00:31:43;;;;;;;16.65;12.02;;;;;;;-1.52;100.00;92815.47;5046435;28;20049;-70
2023/04/06 00:34:11;;;;;;;15.57;13.43;;;;;;;-1.52;100.00;92805.41;5046155;28;20091;-70
2023/04/06 00:36:39;;;;;;;16.23;13.68;;;;;;;-1.49;100.00;92808.41;5046496;28;20485;-70
2023/04/06 00:39:06;;;;;;;17.23;13.40;;;;;;;-1.51;100.00;92806.97;5046300;28;20098;-71
2023/04/06 00:41:32;;;;;;;15.45;13.40;;;;;;;-1.78;100.00;92796.88;5046582;28;20216;-70
2023/04/06 00:43:59;;;;;;;15.25;11.90;;;;;;;-1.71;100.00;92789.50;5046220;28;20117;-71
2023/04/06 00:46:26;;;;;;;15.82;13.90;;;;;;;-1.44;100.00;92805.47;5045151;28;20049;-71
2023/04/06 00:48:53;;;;;;;16.30;13.68;;;;;;;-1.32;100.00;92800.19;5044832;28;20493;-71
2023/04/06 00:51:19;;;;;;;15.32;12.07;;;;;;;-1.36;100.00;92799.69;5044170;28;20056;-71
2023/04/06 00:53:48;;;;;;;15.05;12.82;;;;;;;-1.41;100.00;92797.63;5045941;28;20049;-71
2023/04/06 00:56:14;;;;;;;16.08;13.18;;;;;;;-1.22;100.00;92795.84;5049727;28;20049;-71
2023/04/06 00:58:41;;;;;;;17.58;13.40;;;;;;;-1.15;100.00;92804.38;5035472;28;20049;-71
2023/04/06 01:01:08;;;;;;;16.73;13.73;;;;;;;-1.27;100.00;92800.53;5030046;28;20425;-71
2023/04/06 01:03:35;;;;;;;14.85;12.88;;;;;;;-1.36;100.00;92794.66;5030747;28;20119;-71
2023/04/06 01:06:02;;;;;;;14.85;12.98;;;;;;;-1.38;100.00;92791.50;5030966;28;20057;-71
2023/04/06 01:08:29;;;;;;;15.95;13.52;;;;;;;-1.38;100.00;92788.97;5030041;28;20045;-71
2023/04/06 01:10:57;;;;;;;14.98;12.05;;;;;;;-1.45;100.00;92790.50;5030983;28;20049;-71
2023/04/06 01:13:23;;;;;;;15.60;12.63;;;;;;;-1.39;100.00;92787.41;5029842;28;20053;-71
2023/04/06 01:15:50;;;;;;;17.30;13.27;;;;;;;-1.37;100.00;92783.00;5041603;28;20564;-71
2023/04/06 01:18:17;;;;;;;16.60;13.95;;;;;;;-1.16;100.00;92774.31;5030855;28;20060;-72
2023/04/06 01:20:44;;;;;;;16.92;14.80;;;;;;;-0.94;100.00;92780.56;5042797;28;20119;-72
2023/04/06 01:23:12;;;;;;;15.32;12.55;;;;;;;-0.79;100.00;92777.47;5049355;28;20048;-72
2023/04/06 01:25:39;;;;;;;16.73;13.00;;;;;;;-0.82;100.00;92774.31;5050308;28;20054;-72
2023/04/06 01:28:06;;;;;;;17.10;13.23;;;;;;;-0.78;100.00;92774.81;5050486;28;20048;-71
2023/04/06 01:30:32;;;;;;;14.80;12.65;;;;;;;-0.78;100.00;92776.53;5049233;28;20053;-72
2023/04/06 01:32:59;;;;;;;16.63;11.15;;;;;;;-0.97;100.00;92770.78;5050258;28;20045;-72
2023/04/06 01:35:27;;;;;;;14.23;11.80;;;;;;;-0.93;100.00;92773.78;5050070;28;20055;-72
2023/04/06 01:37:54;;;;;;;17.10;11.90;;;;;;;-1.09;100.00;92760.97;5050035;28;20095;-72
2023/04/06 01:40:22;;;;;;;16.98;11.93;;;;;;;-1.25;100.00;92776.00;5050269;28;20077;-72
2023/04/06 01:42:49;;;;;;;21.67;15.20;;;;;;;-1.12;100.00;92778.91;5050234;28;20098;-72
2023/04/06 01:45:16;;;;;;;16.88;11.82;;;;;;;-1.08;100.00;92781.91;5049787;28;20118;-72
2023/04/06 01:47:42;;;;;;;16.98;11.70;;;;;;;-1.09;100.00;92778.59;5050072;28;20114;-72
2023/04/06 01:50:10;;;;;;;19.08;12.73;;;;;;;-0.87;100.00;92770.66;5050119;28;20122;-72
2023/04/06 01:52:38;;;;;;;14.02;11.07;;;;;;;-1.06;100.00;92779.25;5050055;28;20045;-72
2023/04/06 01:55:05;;;;;;;17.92;12.13;;;;;;;-1.31;100.00;92752.16;5049659;28;20098;-72
2023/04/06 01:57:34;;;;;;;15.57;11.50;;;;;;;-1.32;100.00;92772.47;5049748;28;20064;-72
2023/04/06 02:00:01;;;;;;;16.52;11.80;;;;;;;-1.37;100.00;92771.19;5049500;28;20049;-72
2023/04/06 02:02:28;;;;;;;15.38;11.73;;;;;;;-1.49;100.00;92750.47;5049814;28;20049;-72
2023/04/06 02:04:55;;;;;;;18.98;12.63;;;;;;;-1.35;100.00;92766.78;5049565;28;20102;-72
2023/04/06 02:07:21;;;;;;;18.02;11.30;;;;;;;-1.43;100.00;92758.38;5048709;28;20057;-72
2023/04/06 02:09:48;;;;;;;20.40;12.40;;;;;;;-1.25;100.00;92745.75;5049733;28;20052;-72
2023/04/06 02:12:15;;;;;;;15.77;11.93;;;;;;;-1.10;100.00;92756.06;5049257;28;20045;-72
2023/04/06 02:14:43;;;;;;;15.55;11.85;;;;;;;-1.04;100.00;92754.66;5049099;28;20135;-73
2023/04/06 02:17:10;;;;;;;17.35;12.95;;;;;;;-0.92;100.00;92758.53;5049626;28;20064;-72
2023/04/06 02:19:37;;;;;;;20.35;14.10;;;;;;;-0.76;100.00;92754.47;5049157;28;20130;-72
2023/04/06 02:22:03;;;;;;;15.85;12.50;;;;;;;-0.61;100.00;92758.00;5049440;28;20045;-72
2023/04/06 02:24:30;;;;;;;21.45;14.95;;;;;;;-0.57;100.00;92758.47;5049202;28;20548;-72
2023/04/06 02:26:57;;;;;;;15.38;11.73;;;;;;;-0.69;100.00;92755.47;5049205;28;20401;-72
2023/04/06 02:29:24;;;;;;;16.17;11.48;;;;;;;-0.71;100.00;92762.38;5048431;28;20045;-72
2023/04/06 02:31:52;;;;;;;15.07;9.77;;;;;;;-1.17;100.00;92763.44;5049407;28;20107;-73
2023/04/06 02:34:19;;;;;;;16.83;11.70;;;;;;;-1.39;100.00;92764.72;5048814;28;20049;-72
2023/04/06 02:36:46;;;;;;;17.30;11.43;;;;;;;-1.51;100.00;92744.81;5048853;28;20049;-72
2023/04/06 02:39:13;;;;;;;15.55;10.95;;;;;;;-1.21;100.00;92757.09;5048985;28;20044;-72
2023/04/06 02:41:40;;;;;;;21.67;13.30;;;;;;;-1.16;100.00;92764.22;5049014;28;20121;-72
2023/04/06 02:44:08;;;;;;;23.85;12.82;;;;;;;-1.23;100.00;92753.94;5048330;28;20099;-72
2023/04/06 02:46:35;;;;;;;25.45;12.80;;;;;;;-1.51;100.00;92757.41;5048339;28;20099;-72
2023/04/06 02:49:03;;;;;;;23.92;12.52;;;;;;;-1.48;100.00;92762.13;5048809;28;20106;-72
2023/04/06 02:51:30;;;;;;;17.00;10.70;;;;;;;-1.58;100.00;92728.69;5048392;28;20091;-72
2023/04/06 02:53:57;;;;;;;23.05;13.00;;;;;;;-1.32;100.00;92760.66;5048552;28;20107;-72
2023/04/06 02:56:23;;;;;;;21.67;13.27;;;;;;;-1.30;100.00;92756.25;5048829;28;20040;-72
2023/04/06 02:58:50;;;;;;;15.00;10.77;;;;;;;-1.31;100.00;92766.50;5048157;28;20488;-72
2023/04/06 03:01:17;;;;;;;15.82;11.32;;;;;;;-1.42;100.00;92762.47;5048465;28;20095;-72
2023/04/06 03:03:44;;;;;;;15.40;11.45;;;;;;;-1.46;100.00;92766.22;5048007;28;20061;-73
2023/04/06 03:06:12;;;;;;;14.88;12.13;;;;;;;-1.56;100.00;92758.78;5048413;28;20056;-73
2023/04/06 03:08:38;;;;;;;14.73;11.52;;;;;;;-1.51;100.00;92759.94;5047833;28;20568;-73
2023/04/06 03:11:05;;;;;;;15.18;11.30;;;;;;;-1.63;100.00;92763.59;5048303;28;20524;-73
2023/04/06 03:13:32;;;;;;;14.05;11.20;;;;;;;-1.58;100.00;92758.91;5047934;28;20048;-73
2023/04/06 03:15:59;;;;;;;14.10;10.80;;;;;;;-1.66;100.00;92764.69;5048231;28;20052;-73
2023/04/06 03:18:26;;;;;;;14.65;11.38;;;;;;;-1.63;100.00;92761.88;5047032;28;20049;-73
2023/04/06 03:20:54;;;;;;;14.63;11.40;;;;;;;-1.62;100.00;92747.56;5048381;28;20049;-73
2023/04/06 03:23:22;;;;;;;14.52;11.77;;;;;;;-1.51;100.00;92756.59;5047894;28;20502;-73
2023/04/06 03:25:49;;;;;;;13.18;11.07;;;;;;;-1.44;100.00;92760.09;5048508;28;20379;-72
2023/04/06 03:28:16;;;;;;;17.92;13.00;;;;;;;-1.32;100.00;92759.88;5047982;28;20048;-73
2023/04/06 03:30:43;;;;;;;15.43;11.63;;;;;;;-1.39;100.00;92757.16;5048306;28;20136;-72
2023/04/06 03:33:10;;;;;;;15.60;10.95;;;;;;;-1.37;100.00;92757.78;5048218;28;20134;-72
2023/04/06 03:35:37;;;;;;;14.57;11.40;;;;;;;-1.26;100.00;92734.06;5048162;28;20072;-72
2023/04/06 03:38:03;;;;;;;15.95;10.27;;;;;;;-1.18;100.00;92758.53;5047775;28;20131;-72
2023/04/06 03:40:32;;;;;;;18.45;12.38;;;;;;;-1.37;100.00;92735.13;5047914;28;20861;-72
2023/04/06 03:42:59;;;;;;;18.42;11.60;;;;;;;-1.24;100.00;92755.66;5047810;28;20130;-73
2023/04/06 03:45:25;;;;;;;15.45;11.50;;;;;;;-1.38;100.00;92766.31;5048244;28;20084;-73
2023/04/06 03:47:52;;;;;;;14.65;10.57;;;;;;;-1.48;100.00;92761.38;5047941;28;20041;-72
2023/04/06 03:50:19;;;;;;;14.75;10.70;;;;;;;-1.63;100.00;92759.34;5047883;28;20199;-72
2023/04/06 03:52:46;;;;;;;13.77;11.10;;;;;;;-1.71;100.00;92759.28;5047748;28;20037;-72
2023/04/06 03:55:12;;;;;;;18.65;12.77;;;;;;;-1.58;100.00;92753.88;5048135;28;20444;-72
2023/04/06 03:57:41;;;;;;;16.85;11.07;;;;;;;-1.54;100.00;92755.16;5047248;28;20048;-73
2023/04/06 04:00:09;;;;;;;15.45;11.85;;;;;;;-1.50;100.00;92753.94;5048251;28;20048;-72
2023/04/06 04:02:36;;;;;;;20.58;11.35;;;;;;;-1.53;100.00;92749.19;5048045;28;20049;-72
2023/04/06 04:05:03;;;;;;;17.05;11.35;;;;;;;-1.45;100.00;92758.53;5047757;28;20473;-72
2023/04/06 04:07:30;;;;;;;21.48;13.57;;;;;;;-1.31;100.00;92751.38;5047616;28;20057;-72
2023/04/06 04:09:57;;;;;;;15.48;12.18;;;;;;;-1.49;100.00;92727.00;5047219;28;20045;-72
2023/04/06 04:12:23;;;;;;;20.83;12.27;;;;;;;-1.57;100.00;92750.41;5047562;28;20786;-72
2023/04/06 04:14:52;;;;;;;19.48;12.23;;;;;;;-1.71;100.00;92748.44;5047246;28;20044;-72
2023/04/06 04:17:18;;;;;;;23.52;13.90;;;;;;;-1.63;100.00;92751.00;5047309;28;20045;-72
2023/04/06 04:19:45;;;;;;;17.88;12.63;;;;;;;-1.64;100.00;92737.63;5047391;28;20468;-72
2023/04/06 04:22:12;;;;;;;15.50;11.50;;;;;;;-1.61;100.00;92739.84;5047128;28;20048;-72
2023/04/06 04:24:39;;;;;;;13.05;10.48;;;;;;;-1.50;100.00;92743.06;5046477;28;20420;-72
2023/04/06 04:27:05;;;;;;;18.42;11.27;;;;;;;-1.25;100.00;92758.34;5047382;28;20496;-72
2023/04/06 04:29:32;;;;;;;16.08;11.32;;;;;;;-1.29;100.00;92747.75;5047041;28;20049;-72
2023/04/06 04:32:00;;;;;;;19.73;12.40;;;;;;;-1.27;100.00;92753.44;5047623;28;20624;-72
2023/04/06 04:34:27;;;;;;;16.85;11.55;;;;;;;-1.15;100.00;92748.94;5047180;28;20122;-72
2023/04/06 04:36:54;;;;;;;18.10;12.75;;;;;;;-1.23;100.00;92752.22;5038628;28;20154;-72
2023/04/06 04:39:21;;;;;;;17.13;12.65;;;;;;;-1.15;100.00;92748.94;5042781;28;20136;-72
2023/04/06 04:41:48;;;;;;;15.75;10.27;;;;;;;-1.28;100.00;92746.03;5046966;28;20049;-72
2023/04/06 04:44:14;;;;;;;16.23;12.52;;;;;;;-1.38;100.00;92708.34;5047065;28;20045;-72
2023/04/06 04:46:42;;;;;;;16.75;11.63;;;;;;;-1.17;100.00;92748.31;5047175;28;20045;-72
2023/04/06 04:49:10;;;;;;;20.67;12.18;;;;;;;-1.05;100.00;92748.03;5047132;28;20373;-72
2023/04/06 04:51:37;;;;;;;14.20;10.50;;;;;;;-1.05;100.00;92743.81;5037854;28;20045;-72
2023/04/06 04:54:04;;;;;;;13.77;10.52;;;;;;;-0.95;100.00;92743.69;5043091;28;20067;-72
2023/04/06 04:56:31;;;;;;;14.25;11.00;;;;;;;-0.96;100.00;92742.88;5046833;28;20049;-72
2023/04/06 04:58:57;;;;;;;17.92;13.48;;;;;;;-0.98;100.00;92743.97;5046750;28;20049;-72
2023/04/06 05:01:24;;;;;;;16.92;12.52;;;;;;;-1.04;100.00;92742.84;5047031;28;20099;-72
2023/04/06 05:03:51;;;;;;;19.85;11.88;;;;;;;-1.22;100.00;92732.84;5046758;28;20044;-72
2023/04/06 05:06:20;;;;;;;18.52;12.25;;;;;;;-1.19;100.00;92712.38;5047005;28;20045;-72
2023/04/06 05:08:46;;;;;;;17.83;13.27;;;;;;;-1.05;100.00;92738.75;5046130;28;20071;-72
2023/04/06 05:11:13;;;;;;;16.90;13.15;;;;;;;-1.16;100.00;92732.22;5046857;28;20045;-71
2023/04/06 05:13:40;;;;;;;12.40;10.32;;;;;;;-1.30;100.00;92742.88;5046688;28;20512;-71
2023/04/06 05:16:07;;;;;;;14.88;11.30;;;;;;;-1.32;100.00;92717.03;5046499;28;20497;-71
2023/04/06 05:18:34;;;;;;;13.75;9.88;;;;;;;-0.97;100.00;92745.56;5046803;28;20103;-72
2023/04/06 05:21:01;;;;;;;14.52;10.60;;;;;;;-0.80;100.00;92741.38;5046697;28;20584;-71
2023/04/06 05:23:29;;;;;;;14.02;10.05;;;;;;;-0.64;100.00;92738.13;5046386;28;20115;-71
2023/04/06 05:25:56;;;;;;;13.23;10.35;;;;;;;-0.47;100.00;92738.97;5046863;28;20103;-71
2023/04/06 05:28:23;;;;;;;11.70;10.02;;;;;;;-0.25;100.00;92741.03;5046407;28;20532;-71
2023/04/06 05:30:50;;;;;;;12.07;9.05;;;;;;;-0.50;100.00;92728.38;5046444;28;20554;-71
2023/04/06 05:33:16;;;;;;;12.45;9.20;;;;;;;-0.64;100.00;92742.38;5046340;28;20045;-71
2023/04/06 05:35:43;;;;;;;11.95;9.82;;;;;;;-0.43;100.00;92744.47;5046628;28;20436;-72
2023/04/06 05:38:10;;;;;;;15.63;10.73;;;;;;;-0.42;100.00;92733.44;5045810;28;20045;-71
2023/04/06 05:40:40;;;;;;;13.13;9.90;;;;;;;-0.21;100.00;92732.22;5046477;28;20088;-72
2023/04/06 05:43:07;;;;;;;14.77;9.88;;;;;;;0.01;100.00;92737.63;5037085;28;20056;-71
2023/04/06 05:45:34;;;;;;;15.25;10.82;;;;;;;0.09;100.00;92740.16;5050080;28;20099;-71
2023/04/06 05:48:01;;;;;;;20.48;13.57;;;;;;;0.11;100.00;92739.06;5049962;28;20045;-71
2023/04/06 05:50:28;;;;;;;18.83;11.50;;;;;;;-0.27;100.00;92736.19;5049647;28;20052;-71
2023/04/06 05:52:55;;;;;;;14.80;10.50;;;;;;;-0.40;100.00;92734.09;5049632;28;20041;-70
2023/04/06 05:55:22;;;;;;;15.07;11.35;;;;;;;-0.35;100.00;92726.06;5049743;28;20099;-71
2023/04/06 05:57:50;;;;;;;13.45;10.35;;;;;;;-0.63;100.00;92722.06;5049968;28;20123;-71
2023/04/06 06:00:17;;;;;;;17.55;10.93;;;;;;;-0.40;100.00;92731.56;5047883;28;20041;-70
2023/04/06 06:02:44;;;;;;;17.10;11.38;;;;;;;-0.21;100.00;92725.47;5038183;28;20106;-71
2023/04/06 06:05:11;;;;;;;15.85;10.73;;;;;;;-0.10;100.00;92729.41;5049750;28;20049;-70
2023/04/06 06:07:38;;;;;;;15.57;12.20;;;;;;;0.09;100.00;92730.06;5049560;28;20048;-70
2023/04/06 06:10:05;;;;;;;15.30;11.65;;;;;;;0.21;100.00;92723.75;5049393;28;20049;-71
2023/04/06 06:12:32;;;;;;;15.68;11.60;;;;;;;0.34;100.00;92719.94;5049510;28;20409;-71
2023/04/06 06:15:00;;;;;;;14.93;10.85;;;;;;;0.39;100.00;92725.31;5049578;28;20053;-71
2023/04/06 06:17:27;;;;;;;15.38;11.50;;;;;;;0.43;100.00;92700.50;5049051;28;20506;-71
2023/04/06 06:19:53;;;;;;;14.30;10.65;;;;;;;0.45;100.00;92723.88;5048994;28;20041;-70
2023/04/06 06:22:20;;;;;;;17.33;12.90;;;;;;;0.00;100.00;92701.50;5049331;28;20048;-71
2023/04/06 06:24:47;;;;;;;13.57;10.18;;;;;;;0.30;100.00;92716.16;5049244;28;20048;-71
2023/04/06 06:27:14;;;;;;;15.85;12.07;;;;;;;0.50;100.00;92729.22;5049208;28;20041;-71
2023/04/06 06:29:40;;;;;;;13.93;10.60;;;;;;;0.23;100.00;92729.41;5049283;28;20452;-71
2023/04/06 06:32:09;;;;;;;15.07;10.93;;;;;;;0.36;100.00;92715.50;5049054;28;20494;-71
2023/04/06 06:34:36;;;;;;;14.00;11.02;;;;;;;0.17;100.00;92717.44;5048825;28;20092;-71
2023/04/06 06:37:03;;;;;;;17.25;11.95;;;;;;;0.37;100.00;92729.75;5049030;28;20052;-71
2023/04/06 06:39:29;;;;;;;16.83;12.07;;;;;;;0.54;100.00;92730.50;5048664;28;20047;-71
2023/04/06 06:41:56;;;;;;;21.55;15.52;;;;;;;0.49;100.00;92731.00;5049015;28;20053;-72
2023/04/06 06:44:23;;;;;;;20.02;14.25;;;;;;;0.44;100.00;92725.63;5048628;28;20536;-72
2023/04/06 06:46:50;;;;;;;17.67;11.85;;;;;;;0.16;100.00;92736.06;5048665;28;20049;-72
2023/04/06 06:49:18;;;;;;;16.10;11.18;;;;;;;0.12;100.00;92734.78;5048987;28;20106;-71
2023/04/06 06:51:45;;;;;;;18.38;12.90;;;;;;;-0.02;100.00;92719.31;5048888;28;20090;-72
2023/04/06 06:54:12;;;;;;;16.63;12.98;;;;;;;0.28;100.00;92733.22;5048307;28;20051;-71
2023/04/06 06:56:39;;;;;;;15.02;11.38;;;;;;;0.22;100.00;92735.41;5049048;28;20052;-72
2023/04/06 06:59:06;;;;;;;18.10;13.10;;;;;;;0.48;100.00;92734.47;5048302;28;20095;-72
2023/04/06 07:01:33;;;;;;;17.80;13.23;;;;;;;0.66;100.00;92729.22;5048441;28;20474;-72
2023/04/06 07:04:00;;;;;;;19.52;13.32;;;;;;;0.79;100.00;92743.88;5048102;28;20041;-72
2023/04/06 07:06:28;;;;;;;19.45;14.25;;;;;;;0.55;100.00;92739.66;5048699;28;20126;-72
2023/04/06 07:08:55;;;;;;;17.85;12.98;;;;;;;0.48;100.00;92713.44;5047888;28;20045;-72
2023/04/06 07:11:21;;;;;;;17.65;13.57;;;;;;;0.69;100.00;92738.22;5048309;28;20045;-71
2023/04/06 07:13:48;;;;;;;15.60;12.15;;;;;;;0.64;100.00;92735.38;5048467;28;20041;-72
2023/04/06 07:16:15;;;;;;;16.45;12.82;;;;;;;0.70;100.00;92739.81;5048321;28;20567;-71
2023/04/06 07:18:42;;;;;;;14.13;10.35;;;;;;;0.69;100.00;92718.00;5047840;28;20045;-72
2023/04/06 07:21:08;;;;;;;13.60;10.38;;;;;;;0.77;100.00;92737.41;5048242;28;20049;-72
2023/04/06 07:23:36;;;;;;;15.07;10.82;;;;;;;1.00;100.00;92732.47;5048264;28;20041;-72
2023/04/06 07:26:03;;;;;;;13.45;10.05;;;;;;;1.08;100.00;92738.44;5048442;28;20382;-72
2023/04/06 07:28:30;;;;;;;15.57;11.63;;;;;;;1.18;100.00;92734.78;5034740;28;20060;-72
2023/04/06 07:30:57;;;;;;;18.52;13.82;;;;;;;1.38;100.00;92733.59;5048003;28;20095;-72
2023/04/06 07:33:23;;;;;;;14.82;11.73;;;;;;;1.11;100.00;92741.44;5047771;28;20049;-72
2023/04/06 07:35:51;;;;;;;16.65;12.18;;;;;;;1.03;100.00;92741.47;5047784;28;20049;-72
2023/04/06 07:38:18;;;;;;;12.90;10.20;;;;;;;0.59;100.00;92742.66;5048243;28;20140;-72
2023/04/06 07:40:46;;;;;;;20.25;14.30;;;;;;;0.48;100.00;92739.53;5047819;28;20051;-71
2023/04/06 07:43:12;;;;;;;15.05;10.95;;;;;;;0.37;100.00;92742.38;5047866;28;20050;-71
2023/04/06 07:45:39;;;;;;;16.63;12.40;;;;;;;0.50;100.00;92737.63;5047740;28;20044;-71
2023/04/06 07:48:06;;;;;;;19.08;14.23;;;;;;;0.38;100.00;92741.44;5038536;28;20049;-72
2023/04/06 07:50:33;;;;;;;15.10;11.55;;;;;;;0.64;100.00;92731.13;5046550;28;20100;-71
2023/04/06 07:53:00;;;;;;;18.52;14.07;;;;;;;0.62;100.00;92738.09;5046320;28;20838;-71
2023/04/06 07:55:27;;;;;;;16.13;11.90;;;;;;;0.57;100.00;92714.22;5047018;28;20133;-72
2023/04/06 07:57:55;;;;;;;14.05;10.80;;;;;;;0.86;100.00;92740.72;5042520;28;20053;-71
2023/04/06 08:00:22;;;;;;;15.27;11.60;;;;;;;0.85;100.00;92724.78;5043639;28;20052;-72
2023/04/06 08:02:49;;;;;;;16.35;11.52;;;;;;;1.04;100.00;92740.50;5036122;28;20045;-72
2023/04/06 08:05:16;;;;;;;14.10;11.00;;;;;;;0.91;100.00;92739.28;5045461;28;20114;-71
2023/04/06 08:07:43;;;;;;;14.02;11.18;;;;;;;0.97;100.00;92737.84;5035910;28;20041;-71
2023/04/06 08:10:10;;;;;;;14.63;11.73;;;;;;;1.11;100.00;92738.91;5047253;28;20052;-71
2023/04/06 08:12:37;;;;;;;16.27;11.80;;;;;;;0.74;100.00;92738.53;5047352;28;20082;-71
2023/04/06 08:15:06;;;;;;;14.48;11.45;;;;;;;0.97;100.00;92739.59;5047543;28;20099;-72
2023/04/06 08:17:33;;;;;;;15.60;11.35;;;;;;;1.03;100.00;92744.00;5035879;28;20050;-71
2023/04/06 08:20:00;;;;;;;14.00;11.02;;;;;;;1.33;100.00;92741.66;5044509;28;20490;-71
2023/04/06 08:22:27;;;;;;;15.38;10.93;;;;;;;1.53;100.00;92734.47;5033620;28;20044;-71
2023/04/06 08:24:54;;;;;;;12.75;9.52;;;;;;;1.45;100.00;92742.88;5047072;28;20060;-72
2023/04/06 08:27:21;;;;;;;27.35;17.70;;;;;;;1.87;100.00;92738.38;5047137;28;20183;-72
2023/04/06 08:29:48;;;;;;;18.08;13.02;;;;;;;2.13;100.00;92742.34;5046897;28;20049;-71
2023/04/06 08:32:16;;;;;;;10.55;8.55;;;;;;;1.89;98.45;92742.50;5046568;28;20467;-71
2023/04/06 08:34:43;;;;;;;17.10;11.50;;;;;;;2.13;100.00;92734.75;5047213;28;20095;-71
2023/04/06 08:37:10;;;;;;;13.32;10.07;;;;;;;2.14;99.10;92741.38;5047361;28;20115;-71
2023/04/06 08:39:36;;;;;;;12.32;10.02;;;;;;;2.05;100.00;92734.81;5033450;28;20045;-71
2023/04/06 08:42:03;;;;;;;13.20;9.82;;;;;;;1.98;98.40;92738.94;5047096;28;20045;-71
2023/04/06 08:44:30;;;;;;;12.40;9.48;;;;;;;1.77;97.57;92744.63;5047466;28;20045;-71
2023/04/06 08:47:00;;;;;;;13.18;9.77;;;;;;;1.87;99.96;92738.38;5046322;28;20045;-71
2023/04/06 08:49:29;;;;;;;12.93;9.70;;;;;;;2.05;97.34;92741.59;5046747;28;20048;-71
2023/04/06 08:51:57;;;;;;;15.23;10.95;;;;;;;1.75;98.67;92728.81;5047005;28;20053;-71
2023/04/06 08:54:24;;;;;;;16.63;12.45;;;;;;;1.48;100.00;92720.75;5047078;28;20140;-71
2023/04/06 08:56:51;;;;;;;13.50;9.50;;;;;;;1.44;99.92;92736.25;5046730;28;20060;-71
2023/04/06 08:59:18;;;;;;;16.48;11.40;;;;;;;1.73;100.00;92731.53;5046882;28;20049;-71
2023/04/06 09:01:46;;;;;;;16.30;11.05;;;;;;;2.05;98.85;92729.75;5046405;28;20526;-71
2023/04/06 09:04:13;;;;;;;14.32;9.90;;;;;;;1.60;98.47;92737.91;5046767;28;20676;-71
2023/04/06 09:06:41;;;;;;;13.95;10.38;;;;;;;1.72;99.55;92735.00;5046695;28;20041;-71
2023/04/06 09:09:08;;;;;;;14.00;10.02;;;;;;;1.64;99.95;92717.31;5046929;28;20053;-72
2023/04/06 09:11:46;;;;;;;12.18;10.05;;;;;;;1.57;100.00;92735.72;5046206;28;20060;-71
2023/04/06 09:14:13;;;;;;;12.75;9.90;;;;;;;1.18;99.14;92704.44;5046088;28;20045;-71
2023/04/06 09:16:41;;;;;;;15.80;11.73;;;;;;;1.17;100.00;92709.66;5047564;28;20049;-71
2023/04/06 09:19:09;;;;;;;17.08;12.85;;;;;;;1.67;100.00;92717.78;5050305;28;20128;-71
2023/04/06 09:21:36;;;;;;;15.50;10.82;;;;;;;1.82;97.86;92719.59;5049613;28;20127;-71
2023/04/06 09:24:05;;;;;;;16.50;12.50;;;;;;;1.78;99.77;92721.69;5049059;28;20045;-71
2023/04/06 09:26:33;;;;;;;14.75;10.20;;;;;;;1.46;97.63;92719.16;5050319;28;20490;-71
2023/04/06 09:29:01;;;;;;;17.05;12.93;;;;;;;1.64;99.41;92705.47;5050021;28;20053;-71
2023/04/06 09:31:29;;;;;;;16.30;11.45;;;;;;;1.82;98.37;92710.25;5050450;28;20045;-72
2023/04/06 09:33:56;;;;;;;18.23;12.00;;;;;;;2.14;98.76;92718.56;5050011;28;20106;-71
2023/04/06 09:36:31;;;;;;;12.80;10.50;;;;;;;2.32;95.17;92717.47;5050397;28;20102;-70
2023/04/06 09:39:00;;;;;;;13.63;10.75;;;;;;;2.43;95.28;92718.03;5050378;28;20144;-71
2023/04/06 09:41:30;;;;;;;15.82;11.98;;;;;;;2.54;96.00;92718.41;5050331;28;20103;-70
2023/04/06 09:44:07;;;;;;;15.00;11.15;;;;;;;2.50;92.22;92708.81;5049719;28;20416;-71
2023/04/06 09:46:36;;;;;;;20.95;12.65;;;;;;;2.31;91.86;92715.13;5050157;28;20110;-70
2023/04/06 09:49:04;;;;;;;17.73;12.00;;;;;;;2.54;90.73;92710.81;5050022;28;20045;-70
2023/04/06 09:51:36;;;;;;;12.00;9.30;;;;;;;2.67;91.83;92717.81;5050416;28;20124;-70
2023/04/06 09:54:05;;;;;;;11.60;8.93;;;;;;;2.82;91.82;92694.22;5049570;28;20041;-71
2023/04/06 09:56:40;;;;;;;12.13;9.32;;;;;;;3.10;89.53;92716.44;5049996;28;20053;-70
2023/04/06 09:59:12;;;;;;;12.85;10.32;;;;;;;3.23;88.22;92715.81;5049482;28;20088;-70
2023/04/06 10:01:40;;;;;;;13.85;11.05;;;;;;;3.61;88.89;92715.66;5049455;28;20167;-70
2023/04/06 10:04:19;;;;;;;15.07;10.68;;;;;;;3.04;88.31;92697.63;5036900;28;20090;-70
2023/04/06 10:06:47;;;;;;;12.13;9.70;;;;;;;3.44;89.44;92714.31;5046139;28;20373;-70
2023/04/06 10:09:16;;;;;;;11.65;9.10;;;;;;;3.44;86.51;92715.09;5041258;28;20807;-70
2023/04/06 10:11:44;;;;;;;15.23;10.68;;;;;;;3.34;86.22;92706.97;5049559;28;20041;-71
2023/04/06 10:14:11;;;;;;;14.88;10.77;;;;;;;3.17;88.29;92707.16;5048934;28;20076;-70
2023/04/06 10:16:38;;;;;;;12.75;10.10;;;;;;;3.47;88.29;92699.50;5049243;28;20149;-70
2023/04/06 10:19:13;;;;;;;12.00;8.88;;;;;;;3.45;83.33;92693.81;5049268;28;20048;-70
2023/04/06 10:21:41;;;;;;;15.32;10.23;;;;;;;3.21;86.49;92705.81;5049542;28;20044;-70
2023/04/06 10:24:11;;;;;;;11.80;8.82;;;;;;;2.92;86.59;92704.13;5049594;28;20126;-70
2023/04/06 10:26:39;;;;;;;11.70;8.88;;;;;;;2.91;86.10;92700.78;5049178;28;20045;-70
2023/04/06 10:29:07;;;;;;;12.77;9.10;;;;;;;3.25;87.14;92692.78;5036513;28;20049;-71
2023/04/06 10:31:42;;;;;;;12.40;9.52;;;;;;;2.71;86.59;92703.03;5028841;28;20502;-71
2023/04/06 10:34:09;;;;;;;12.82;10.70;;;;;;;2.61;88.42;92695.69;5029120;28;20049;-70
2023/04/06 10:36:37;;;;;;;17.60;12.18;;;;;;;2.97;92.98;92694.22;5048272;28;20052;-71
2023/04/06 10:39:06;;;;;;;11.93;9.00;;;;;;;3.10;86.01;92698.66;5043592;28;20045;-71
2023/04/06 10:41:34;;;;;;;12.90;10.15;;;;;;;3.01;87.91;92689.59;5048471;28;20041;-70
2023/04/06 10:44:02;;;;;;;11.43;9.13;;;;;;;3.09;86.67;92673.47;5049340;28;20076;-71
2023/04/06 10:46:32;;;;;;;12.63;9.50;;;;;;;3.23;83.42;92689.66;5048160;28;20040;-71
2023/04/06 10:49:00;;;;;;;11.32;9.35;;;;;;;3.52;85.29;92688.03;5048046;28;20056;-71
2023/04/06 10:51:28;;;;;;;13.60;9.13;;;;;;;3.16;83.06;92690.34;5046895;28;20057;-71
2023/04/06 10:53:56;;;;;;;15.80;12.25;;;;;;;3.45;89.10;92672.72;5048376;28;20055;-71
2023/04/06 10:56:25;;;;;;;12.50;9.57;;;;;;;3.66;81.66;92687.19;5049269;28;20421;-71
2023/04/06 10:58:55;;;;;;;15.15;10.65;;;;;;;3.35;83.33;92700.91;5049315;28;20044;-71
2023/04/06 11:01:24;;;;;;;12.55;9.18;;;;;;;3.45;83.64;92693.00;5048955;28;20246;-70
2023/04/06 11:03:53;;;;;;;11.45;9.65;;;;;;;3.26;83.04;92694.38;5048583;28;20127;-71
2023/04/06 11:06:21;;;;;;;13.18;10.45;;;;;;;3.30;86.67;92691.31;5046374;28;20106;-70
2023/04/06 11:08:48;;;;;;;9.82;7.90;;;;;;;3.09;81.48;92688.72;5048535;28;20091;-71
2023/04/06 11:11:18;;;;;;;14.10;10.60;;;;;;;3.36;83.58;92694.88;5046965;28;20098;-71
2023/04/06 11:13:47;;;;;;;10.57;9.13;;;;;;;3.37;82.80;92686.28;5047582;28;20451;-71
2023/04/06 11:16:18;;;;;;;11.35;8.82;;;;;;;3.26;82.66;92682.47;5047674;28;20345;-71
2023/04/06 11:18:54;;;;;;;13.77;11.00;;;;;;;3.21;84.26;92690.59;5047630;28;20059;-71